Tomatin, United Kingdom
Current Conditions -  °F | °C
As of 1:20 AM on Monday 24 Nov 2014 (Local Time) from EGPE Reporting Station
Clear Clear  
Wind Chill: 37°   Ceiling: Unl
Heat Index: 45°   Visibility: 6mi
Dew Point: 41°   Wind: 16mph
Humidity: 87%   Direction: 260°W
Pressure: 29.97"   Gusts: NA
Location:  57.34°N, 3.98°W
Report Text: EGPE 240120Z AUTO 26014KT 9999 NCD 07/05 Q1015
Loading
Personal Weather Stations






























Interactive Weather Map New forecast layout! Learn more

10-Day Weather Forecast

Advertisements
Track Severe Weather on mobile